Gas City, IN

8:17 AM EST on February 10, 2016 (GMT -0500)
MY Yard Barn | | Change Station
CLOSE
Current Station
Personal Weather Station
Location: Gas City, IN
Elevation: 853 ft
Nearby Weather Stations

Elev 853 ft 40.49 °N, 85.62 °W | Updated 2 seconds ago

Overcast
Overcast
13.0 °F
Feels Like -1 °F
N
12.0
Wind Variable Wind from West
Gusts 15.0 mph

Today
High -- | Low -- °F
--% Chance of Precip.
Yesterday
High -- | Low -- °F
Precip. -- in
Pressure 29.94 in
Visibility 3.0 miles
Clouds Mostly Cloudy 3000 ft
Overcast 3600 ft
Windchill -1 °F
Dew Point 11 °F
Humidity 93%
Rainfall 0.00 in
Snow Depth Not available.
7:42 AM 6:11 PM
Waxing Crescent, 5% visible
METAR KMZZ 101255Z AUTO 27016KT 3SM HZ BKN030 OVC036 M10/M15 A2994 RMK AO2 T11031150
Pressure 29.94 in
Visibility 3.0 miles
Clouds Mostly Cloudy 3000 ft
Overcast 3600 ft
Windchill -1 °F
Dew Point 11 °F
Humidity 93%
Rainfall 0.00 in
Snow Depth Not available.
7:42 AM 6:11 PM
Waxing Crescent, 5% visible
METAR KMZZ 101255Z AUTO 27016KT 3SM HZ BKN030 OVC036 M10/M15 A2994 RMK AO2 T11031150

10-Day Weather Forecast

Almanac

Astronomy

Feb. 10, 2016 Rise Set
Actual Time
Civil Twilight
Nautical Twilight
Astronomical Twilight
Moon
Length of Visible Light
Length of Day
Tomorrow will be .
, % of the Moon is Illuminated

Today's Extremes

State Highs State Lows

Community

WunderPhotos

Upload Photos

1,891,839 photos uploaded!

WunderBlog® & News

Nearby

Air Quality

  Air Quality AQ Index Pollutant
Not available.

Snow Depth

Station Depth Elevation

Earthquake Activity

City Distance Mag. Time & Date
Minimum magnitude displayed is 2.5.

Coastal Water Temperatures

Place Temperature

Stations

Nearby Weather Stations

Station Location Temp. Windchill Dew Point Humidity Wind Precip. Elev Updated Type
                   

Watches & Warnings

There are currently no watches in effect.